Time;durP1;ratioP1;P1;durP2;ratioP2;P2;SDS_P1;SDS_P2;PMS_P1;PMS_P2;Temp;Humidity;BMP_temperature;BMP_pressure;BME280_temperature;BME280_humidity;BME280_pressure;Samples;Min_cycle;Max_cycle;Signal;HPM_P1;HPM_P2
2022/03/25 00:02:21;;;;;;;;;53.50;39.50;;;;;16.61;35.34;102393.31;4993644;27;45742;-77
2022/03/25 00:04:47;;;;;;;;;53.00;42.00;;;;;16.53;35.32;102392.94;4993419;28;45436;-77
2022/03/25 00:07:12;;;;;;;;;54.00;44.25;;;;;16.43;34.94;102383.78;4992827;28;45405;-77
2022/03/25 00:09:38;;;;;;;;;48.75;39.75;;;;;16.47;35.25;102390.03;4993118;28;45423;-77
2022/03/25 00:12:05;;;;;;;;;57.50;43.25;;;;;16.45;35.50;102394.31;4993429;28;45205;-77
2022/03/25 00:14:30;;;;;;;;;53.50;43.00;;;;;16.47;35.57;102400.50;4992332;28;45902;-76
2022/03/25 00:16:56;;;;;;;;;51.75;41.00;;;;;16.49;35.59;102399.75;4993232;28;45745;-77
2022/03/25 00:19:22;;;;;;;;;53.00;41.50;;;;;16.48;35.58;102394.44;4976373;28;45538;-77
2022/03/25 00:21:48;;;;;;;;;51.00;42.50;;;;;16.47;35.61;102393.56;4992494;27;45463;-77
2022/03/25 00:24:13;;;;;;;;;55.00;40.75;;;;;16.51;35.48;102397.19;4993104;28;45471;-77
2022/03/25 00:26:39;;;;;;;;;53.00;42.50;;;;;16.49;35.42;102398.84;4993150;27;45504;-77
2022/03/25 00:29:05;;;;;;;;;58.50;43.25;;;;;16.40;35.31;102374.06;4993478;28;45574;-77
2022/03/25 00:31:30;;;;;;;;;54.50;42.00;;;;;16.45;35.63;102379.50;4993418;28;45499;-78
2022/03/25 00:33:56;;;;;;;;;53.75;38.75;;;;;16.47;35.79;102390.94;4993233;28;45366;-77
2022/03/25 00:36:23;;;;;;;;;42.00;34.50;;;;;16.48;35.72;102391.81;4993932;28;45388;-77
2022/03/25 00:38:49;;;;;;;;;50.50;40.50;;;;;16.45;35.69;102396.94;4993746;28;45531;-76
2022/03/25 00:41:16;;;;;;;;;51.75;41.25;;;;;16.44;35.83;102395.16;4992774;27;45389;-76
2022/03/25 00:43:46;;;;;;;;;58.25;42.25;;;;;16.37;35.59;102393.97;4993513;27;45409;-77
2022/03/25 00:46:12;;;;;;;;;53.50;42.75;;;;;16.35;35.56;102393.00;4993192;28;45278;-77
2022/03/25 00:48:40;;;;;;;;;53.25;43.00;;;;;16.36;35.70;102395.66;4993585;28;45226;-77
2022/03/25 00:51:05;;;;;;;;;53.00;42.50;;;;;16.31;35.77;102388.44;4993196;27;46598;-77
2022/03/25 00:53:32;;;;;;;;;57.75;42.75;;;;;16.27;36.22;102389.13;4975555;27;45399;-76
2022/03/25 00:56:01;;;;;;;;;43.00;33.75;;;;;16.24;36.18;102385.53;4993279;28;45406;-77
2022/03/25 00:58:27;;;;;;;;;55.00;43.25;;;;;16.25;36.22;102391.69;4993475;27;45531;-76
2022/03/25 01:00:53;;;;;;;;;59.00;44.25;;;;;16.01;36.13;102357.44;4993290;28;45971;-77
2022/03/25 01:03:19;;;;;;;;;53.50;42.75;;;;;16.16;35.62;102380.78;4992561;28;45358;-76
2022/03/25 01:05:44;;;;;;;;;51.25;42.75;;;;;16.15;36.51;102392.03;4992864;28;45278;-77
2022/03/25 01:08:11;;;;;;;;;57.00;43.50;;;;;16.09;35.95;102384.81;4992982;27;45625;-77
2022/03/25 01:10:37;;;;;;;;;57.00;45.50;;;;;16.07;36.60;102382.13;4992706;28;46197;-76
2022/03/25 01:13:04;;;;;;;;;55.00;42.00;;;;;15.98;36.24;102376.47;4991420;28;45479;-77
2022/03/25 01:15:30;;;;;;;;;54.25;42.75;;;;;16.00;36.74;102387.00;4991624;28;45266;-76
2022/03/25 01:17:56;;;;;;;;;50.25;41.25;;;;;15.96;36.37;102378.13;4993005;28;45410;-77
2022/03/25 01:20:22;;;;;;;;;56.50;43.25;;;;;15.90;36.23;102367.38;4998692;28;46100;-77
2022/03/25 01:22:48;;;;;;;;;55.00;43.25;;;;;15.73;36.63;102348.25;4999157;28;45298;-76
2022/03/25 01:25:13;;;;;;;;;52.75;42.00;;;;;15.86;36.96;102368.03;4992659;27;45248;-76
2022/03/25 01:27:40;;;;;;;;;59.25;43.75;;;;;15.72;36.57;102352.56;4992744;28;45291;-76
2022/03/25 01:30:06;;;;;;;;;57.75;43.50;;;;;15.71;36.52;102356.00;4992379;28;45654;-76
2022/03/25 01:32:32;;;;;;;;;54.50;41.50;;;;;15.74;37.16;102370.94;4992153;28;45427;-76
2022/03/25 01:34:58;;;;;;;;;50.00;39.25;;;;;15.67;37.19;102359.28;4995376;28;45359;-76
2022/03/25 01:37:25;;;;;;;;;58.00;44.50;;;;;15.71;37.20;102363.81;4996584;27;45358;-79
2022/03/25 01:39:51;;;;;;;;;54.50;42.75;;;;;15.71;37.28;102366.44;4994716;27;45262;-77
2022/03/25 01:42:28;;;;;;;;;61.50;47.00;;;;;15.72;37.45;102362.13;4995700;27;45905;-77
2022/03/25 01:44:54;;;;;;;;;54.75;43.75;;;;;15.68;37.31;102354.97;4994763;27;45503;-77
2022/03/25 01:47:30;;;;;;;;;56.00;44.00;;;;;15.66;37.40;102360.13;4993997;28;45206;-77
2022/03/25 01:50:00;;;;;;;;;51.25;38.75;;;;;15.66;37.19;102367.94;4993900;28;47764;-77
2022/03/25 01:52:28;;;;;;;;;48.25;36.50;;;;;15.54;37.27;102339.53;4995673;28;45812;-77
2022/03/25 01:54:54;;;;;;;;;56.00;43.25;;;;;15.63;37.28;102360.88;4995905;28;45366;-76
2022/03/25 01:57:24;;;;;;;;;54.00;42.00;;;;;15.64;37.36;102359.13;5005386;28;45767;-78
2022/03/25 01:59:50;;;;;;;;;55.25;42.00;;;;;15.62;37.33;102359.06;5003245;28;45346;-77
2022/03/25 02:02:15;;;;;;;;;55.25;43.75;;;;;15.50;37.60;102352.34;4995318;28;45279;-77
2022/03/25 02:04:41;;;;;;;;;55.00;42.75;;;;;15.33;37.73;102329.81;4995612;27;45709;-78
2022/03/25 02:07:09;;;;;;;;;54.75;43.00;;;;;15.49;37.71;102354.06;4998810;28;45410;-78
2022/03/25 02:09:35;;;;;;;;;58.75;44.50;;;;;15.32;37.82;102332.34;4995338;28;45377;-76
2022/03/25 02:12:01;;;;;;;;;57.50;46.75;;;;;15.46;37.91;102356.50;4995052;28;45416;-79
2022/03/25 02:14:26;;;;;;;;;56.00;43.50;;;;;15.43;37.64;102353.78;4995460;28;45373;-77
2022/03/25 02:16:52;;;;;;;;;53.00;42.75;;;;;15.43;37.69;102359.00;4989476;28;45497;-77
2022/03/25 02:19:18;;;;;;;;;54.00;43.25;;;;;15.45;37.95;102367.78;4998302;28;45367;-77
2022/03/25 02:21:45;;;;;;;;;55.50;43.25;;;;;15.27;38.17;102329.50;5011890;27;45843;-77
2022/03/25 02:24:13;;;;;;;;;54.00;43.75;;;;;15.36;37.78;102352.56;5005072;27;45268;-77
2022/03/25 02:26:39;;;;;;;;;52.50;43.25;;;;;15.48;38.01;102362.72;4996707;27;45335;-77
2022/03/25 02:29:05;;;;;;;;;52.25;42.00;;;;;15.44;37.67;102359.06;4976950;28;48074;-77
2022/03/25 02:31:31;;;;;;;;;52.25;43.00;;;;;15.46;37.78;102359.13;4999908;27;45335;-77
2022/03/25 02:34:01;;;;;;;;;59.75;45.75;;;;;15.52;38.12;102363.75;5001481;27;45339;-77
2022/03/25 02:36:26;;;;;;;;;51.25;41.00;;;;;15.50;37.76;102353.25;5002047;28;45223;-77
2022/03/25 02:38:52;;;;;;;;;56.00;44.50;;;;;15.51;37.71;102360.25;4995294;28;45456;-77
2022/03/25 02:41:18;;;;;;;;;55.00;42.25;;;;;15.46;37.80;102360.03;5012661;28;45496;-77
2022/03/25 02:43:43;;;;;;;;;57.50;45.25;;;;;15.47;38.40;102363.53;5009085;27;45188;-79
2022/03/25 02:46:09;;;;;;;;;50.25;39.75;;;;;15.44;38.15;102364.28;4995925;27;45266;-77
2022/03/25 02:48:35;;;;;;;;;50.50;41.25;;;;;15.27;38.46;102350.38;4993647;28;48004;-77
2022/03/25 02:51:01;;;;;;;;;50.50;40.50;;;;;15.37;38.70;102361.28;5012455;28;45483;-77
2022/03/25 02:53:27;;;;;;;;;56.50;45.00;;;;;15.23;38.80;102348.44;4994893;27;45445;-77
2022/03/25 02:55:54;;;;;;;;;56.75;45.50;;;;;15.28;38.71;102369.56;5004529;28;45505;-77
2022/03/25 02:58:20;;;;;;;;;58.50;43.75;;;;;15.14;39.05;102350.56;4994739;27;45347;-77
2022/03/25 03:00:45;;;;;;;;;56.25;44.00;;;;;15.11;39.20;102348.72;4995941;27;45831;-77
2022/03/25 03:03:11;;;;;;;;;32.75;27.25;;;;;15.17;39.55;102366.41;4996564;28;45670;-78
2022/03/25 03:05:37;;;;;;;;;54.75;43.50;;;;;15.20;39.14;102365.66;5003504;28;45463;-78
2022/03/25 03:08:03;;;;;;;;;48.25;40.25;;;;;15.13;39.53;102352.31;5004512;28;45402;-77
2022/03/25 03:10:29;;;;;;;;;54.00;41.50;;;;;15.24;39.38;102372.81;4994227;28;45837;-77
2022/03/25 03:12:54;;;;;;;;;53.50;41.00;;;;;15.22;38.98;102370.16;4994726;28;45272;-77
2022/03/25 03:15:22;;;;;;;;;52.50;41.25;;;;;15.18;39.43;102362.97;4994959;28;45335;-78
2022/03/25 03:17:49;;;;;;;;;50.25;41.75;;;;;15.17;39.53;102367.28;4989703;28;46306;-78
2022/03/25 03:20:19;;;;;;;;;56.50;45.25;;;;;15.20;39.42;102368.25;4983249;28;45300;-77
2022/03/25 03:22:45;;;;;;;;;52.00;41.50;;;;;15.18;39.94;102362.97;5003814;28;45545;-77
2022/03/25 03:25:11;;;;;;;;;55.50;41.50;;;;;15.11;39.73;102358.25;4995477;27;45483;-78
2022/03/25 03:27:37;;;;;;;;;49.75;39.00;;;;;15.14;39.79;102372.34;5005557;27;46619;-78
2022/03/25 03:30:11;;;;;;;;;52.75;42.25;;;;;15.12;39.72;102373.97;5016549;28;45399;-77
2022/03/25 03:32:37;;;;;;;;;55.50;42.00;;;;;15.01;39.79;102347.34;5014664;28;45224;-78
2022/03/25 03:35:04;;;;;;;;;52.25;39.75;;;;;15.05;39.74;102361.47;4996398;28;45256;-78
2022/03/25 03:37:30;;;;;;;;;53.50;41.25;;;;;15.08;40.03;102360.72;5000971;27;45988;-77
2022/03/25 03:39:56;;;;;;;;;28.00;20.75;;;;;14.98;40.36;102338.47;4998904;27;45345;-77
2022/03/25 03:42:22;;;;;;;;;52.75;41.00;;;;;15.02;40.62;102346.53;4999434;28;45404;-77
2022/03/25 03:44:47;;;;;;;;;52.25;40.75;;;;;15.06;40.93;102359.72;4996327;28;45600;-78
2022/03/25 03:47:14;;;;;;;;;54.50;42.50;;;;;15.02;40.49;102353.47;4998065;28;45410;-78
2022/03/25 03:49:39;;;;;;;;;52.75;40.75;;;;;15.02;40.58;102351.72;4983456;28;45902;-77
2022/03/25 03:52:05;;;;;;;;;50.50;39.75;;;;;14.96;41.24;102348.81;4995053;28;45532;-78
2022/03/25 03:54:32;;;;;;;;;52.50;42.00;;;;;14.99;40.82;102362.03;5014178;27;45378;-78
2022/03/25 03:56:59;;;;;;;;;52.75;42.00;;;;;14.91;41.28;102358.09;4994130;27;45448;-78
2022/03/25 03:59:25;;;;;;;;;51.25;41.00;;;;;14.85;41.20;102353.47;4974575;28;45257;-78
2022/03/25 04:01:51;;;;;;;;;54.00;41.50;;;;;14.80;41.58;102357.56;5001296;28;45847;-78
2022/03/25 04:04:17;;;;;;;;;55.25;42.00;;;;;14.72;42.26;102356.28;5011577;28;45574;-78
2022/03/25 04:06:43;;;;;;;;;50.50;39.25;;;;;14.70;41.92;102365.72;4994851;27;46130;-78
2022/03/25 04:09:14;;;;;;;;;53.25;41.50;;;;;14.61;42.30;102352.16;4997030;28;45437;-78
2022/03/25 04:11:39;;;;;;;;;52.00;41.75;;;;;14.63;42.94;102358.38;5001912;28;45423;-78
2022/03/25 04:14:05;;;;;;;;;54.75;42.25;;;;;14.51;42.68;102351.69;5000046;27;45557;-77
2022/03/25 04:16:30;;;;;;;;;49.75;39.25;;;;;14.49;42.86;102355.91;5010499;28;46441;-77
2022/03/25 04:18:57;;;;;;;;;58.50;43.00;;;;;14.48;43.28;102356.72;4993762;28;45363;-78
2022/03/25 04:21:22;;;;;;;;;52.25;41.75;;;;;14.50;43.88;102365.53;5012107;27;45272;-78
2022/03/25 04:23:48;;;;;;;;;50.00;40.00;;;;;14.40;44.09;102358.91;5008332;28;45315;-78
2022/03/25 04:26:14;;;;;;;;;52.25;41.00;;;;;14.34;44.03;102347.25;4994109;27;46309;-78
2022/03/25 04:28:39;;;;;;;;;49.75;39.75;;;;;14.43;44.36;102367.72;5000075;28;45348;-78
2022/03/25 04:31:05;;;;;;;;;49.50;40.00;;;;;14.34;44.19;102348.16;5008306;27;45426;-79
2022/03/25 04:33:34;;;;;;;;;54.50;41.50;;;;;14.39;44.67;102362.34;4994818;27;45502;-78
2022/03/25 04:36:00;;;;;;;;;56.75;43.25;;;;;14.32;44.56;102352.41;4999151;28;46188;-78
2022/03/25 04:38:26;;;;;;;;;53.50;43.00;;;;;14.41;45.11;102380.66;4976908;28;45305;-78
2022/03/25 04:40:52;;;;;;;;;53.00;41.00;;;;;14.35;44.87;102378.63;4994682;27;45374;-78
2022/03/25 04:43:17;;;;;;;;;52.00;43.00;;;;;14.33;45.06;102375.03;5007076;28;45242;-78
2022/03/25 04:45:43;;;;;;;;;55.25;41.75;;;;;14.28;45.17;102376.47;5003972;28;45968;-78
2022/03/25 04:48:10;;;;;;;;;51.00;41.25;;;;;14.10;45.77;102363.34;5002792;28;45334;-79
2022/03/25 04:50:37;;;;;;;;;51.50;40.00;;;;;14.18;45.62;102380.31;4988368;28;45337;-79
2022/03/25 04:53:03;;;;;;;;;51.00;40.50;;;;;14.03;46.08;102369.03;4990274;28;45331;-78
2022/03/25 04:55:28;;;;;;;;;48.75;41.25;;;;;14.02;46.28;102380.25;5008385;27;45612;-78
2022/03/25 04:57:54;;;;;;;;;50.00;41.25;;;;;14.03;46.59;102384.66;5006936;28;45411;-78
2022/03/25 05:00:20;;;;;;;;;52.00;41.00;;;;;14.06;46.87;102390.03;5001887;28;45429;-78
2022/03/25 05:02:45;;;;;;;;;55.25;41.25;;;;;14.05;47.21;102390.84;5009102;27;45930;-78
2022/03/25 05:05:12;;;;;;;;;52.25;41.25;;;;;14.02;46.63;102394.19;4994375;28;45422;-77
2022/03/25 05:07:41;;;;;;;;;52.75;42.75;;;;;13.99;47.03;102398.28;4994521;28;45853;-77
2022/03/25 05:10:07;;;;;;;;;58.25;45.50;;;;;13.89;47.24;102383.88;4999574;28;45447;-77
2022/03/25 05:12:33;;;;;;;;;52.25;43.00;;;;;13.89;47.05;102387.38;4999905;28;45659;-77
2022/03/25 05:14:59;;;;;;;;;53.00;41.00;;;;;13.91;47.28;102403.97;4999023;28;45329;-77
2022/03/25 05:17:25;;;;;;;;;51.75;41.50;;;;;13.85;47.57;102402.72;5014392;27;45409;-77
2022/03/25 05:19:50;;;;;;;;;50.00;38.00;;;;;13.75;47.29;102397.00;5000358;28;45766;-78
2022/03/25 05:22:16;;;;;;;;;53.00;41.50;;;;;13.74;47.87;102394.31;4996617;27;45199;-77
2022/03/25 05:24:42;;;;;;;;;49.50;39.50;;;;;13.66;48.39;102404.28;5015106;28;45884;-77
2022/03/25 05:27:07;;;;;;;;;52.00;41.75;;;;;13.64;48.66;102403.28;5010378;28;45364;-77
2022/03/25 05:29:33;;;;;;;;;54.50;43.75;;;;;13.48;48.81;102387.63;4986525;28;45298;-77
2022/03/25 05:31:58;;;;;;;;;53.25;43.00;;;;;13.44;49.19;102389.16;4993015;28;45518;-77
2022/03/25 05:34:24;;;;;;;;;55.75;43.75;;;;;13.48;49.15;102401.50;4996857;27;45740;-77
2022/03/25 05:36:50;;;;;;;;;56.00;43.50;;;;;13.40;49.80;102393.25;5006375;27;45757;-77
2022/03/25 05:39:15;;;;;;;;;56.00;43.75;;;;;13.47;49.62;102402.31;4995598;28;45430;-78
2022/03/25 05:41:44;;;;;;;;;58.25;46.00;;;;;13.39;49.49;102394.03;4997556;28;45482;-77
2022/03/25 05:44:11;;;;;;;;;53.00;43.25;;;;;13.31;49.49;102380.59;5005880;27;46193;-77
2022/03/25 05:46:38;;;;;;;;;53.25;41.75;;;;;13.45;49.76;102409.13;5012257;27;45348;-78
2022/03/25 05:49:04;;;;;;;;;54.75;43.25;;;;;13.41;49.65;102405.44;4998919;28;45247;-77
2022/03/25 05:51:30;;;;;;;;;57.50;45.75;;;;;13.42;49.80;102406.38;5013772;28;45466;-77
2022/03/25 05:53:56;;;;;;;;;54.50;43.00;;;;;13.24;50.45;102368.00;4999328;27;45992;-77
2022/03/25 05:56:22;;;;;;;;;50.50;40.25;;;;;13.34;49.83;102390.25;4997785;28;45278;-76
2022/03/25 05:58:48;;;;;;;;;53.25;44.00;;;;;13.48;49.78;102411.03;5015332;27;45486;-77
2022/03/25 06:01:13;;;;;;;;;51.00;40.00;;;;;13.36;50.06;102398.16;5006829;27;45437;-77
2022/03/25 06:03:39;;;;;;;;;55.50;42.00;;;;;13.41;49.90;102410.66;5005854;28;45554;-77
2022/03/25 06:06:09;;;;;;;;;54.00;41.75;;;;;13.38;50.16;102420.88;5008567;27;45477;-74
2022/03/25 06:08:35;;;;;;;;;55.00;42.50;;;;;13.39;50.56;102422.66;5061824;27;45497;-76
2022/03/25 06:11:04;;;;;;;;;56.75;43.25;;;;;13.39;50.50;102432.16;5015025;28;45358;-77
2022/03/25 06:13:30;;;;;;;;;60.00;44.50;;;;;13.36;50.80;102424.16;5014671;27;45719;-77
2022/03/25 06:15:56;;;;;;;;;55.50;43.25;;;;;13.06;50.13;102378.22;4980556;28;45882;-77
2022/03/25 06:18:22;;;;;;;;;56.00;44.75;;;;;13.38;50.74;102430.34;5000287;28;45386;-76
2022/03/25 06:20:48;;;;;;;;;55.50;42.50;;;;;13.31;50.53;102423.88;5014353;27;45267;-76
2022/03/25 06:23:14;;;;;;;;;57.00;42.50;;;;;13.36;51.10;102431.97;4976909;28;49386;-76
2022/03/25 06:25:41;;;;;;;;;53.25;41.25;;;;;13.31;51.12;102430.00;4994926;27;45270;-76
2022/03/25 06:28:07;;;;;;;;;57.25;44.25;;;;;13.39;50.60;102442.56;4994699;28;45498;-76
2022/03/25 06:30:35;;;;;;;;;57.75;44.75;;;;;13.39;50.80;102446.06;4994802;27;45445;-76
2022/03/25 06:33:05;;;;;;;;;51.50;41.25;;;;;13.39;50.82;102443.47;4994230;28;46230;-78
2022/03/25 06:35:31;;;;;;;;;53.50;42.25;;;;;13.41;50.88;102441.00;4994761;28;45331;-78
2022/03/25 06:37:57;;;;;;;;;56.25;44.00;;;;;13.40;50.73;102432.28;4999214;27;45455;-77
2022/03/25 06:40:33;;;;;;;;;60.25;46.50;;;;;13.48;51.20;102443.13;5052044;27;45448;-78
2022/03/25 06:42:59;;;;;;;;;54.00;42.25;;;;;13.29;51.03;102426.41;4994458;28;46329;-77
2022/03/25 06:45:26;;;;;;;;;56.50;43.75;;;;;13.37;51.12;102431.16;5001508;28;45333;-77
2022/03/25 06:47:53;;;;;;;;;55.25;42.75;;;;;13.41;51.23;102460.09;5014817;28;45227;-77
2022/03/25 06:50:21;;;;;;;;;65.00;49.75;;;;;13.31;51.53;102442.09;4996799;28;45233;-77
2022/03/25 06:52:48;;;;;;;;;58.00;45.75;;;;;13.21;51.74;102412.06;4996439;28;48031;-75
2022/03/25 06:55:16;;;;;;;;;55.50;43.75;;;;;13.51;52.30;102469.34;4996378;28;45903;-77
2022/03/25 06:57:42;;;;;;;;;60.50;47.00;;;;;13.37;52.02;102444.16;5012155;27;45408;-77
2022/03/25 07:00:11;;;;;;;;;55.50;45.50;;;;;13.51;52.10;102469.34;5003568;27;45625;-76
2022/03/25 07:02:41;;;;;;;;;60.00;44.25;;;;;13.57;51.69;102468.81;5013775;28;45509;-74
2022/03/25 07:05:10;;;;;;;;;54.50;44.00;;;;;13.60;50.87;102464.69;5005368;28;45939;-76
2022/03/25 07:07:37;;;;;;;;;59.25;46.00;;;;;13.64;51.04;102464.88;5000440;28;45352;-77
2022/03/25 07:10:03;;;;;;;;;59.50;45.75;;;;;13.67;51.18;102463.34;5007398;27;45512;-77
2022/03/25 07:12:29;;;;;;;;;56.50;44.00;;;;;13.59;51.09;102454.19;4997683;28;45356;-78
2022/03/25 07:14:55;;;;;;;;;54.25;42.00;;;;;13.71;50.81;102456.59;5003346;28;45370;-82
2022/03/25 07:17:21;;;;;;;;;58.75;46.00;;;;;13.70;50.47;102452.19;4997325;28;45388;-81
2022/03/25 07:19:47;;;;;;;;;54.75;44.50;;;;;13.65;49.87;102445.84;4995845;28;45566;-86
2022/03/25 07:22:13;;;;;;;;;61.00;46.50;;;;;13.54;50.13;102435.72;4990481;28;46956;-82
2022/03/25 07:24:40;;;;;;;;;61.75;45.75;;;;;13.78;50.08;102466.56;4979763;28;45374;-91
2022/03/25 07:27:05;;;;;;;;;67.50;50.75;;;;;13.82;50.05;102471.16;4977612;27;45576;-77
2022/03/25 07:29:31;;;;;;;;;58.75;46.50;;;;;13.65;49.88;102438.03;4994574;28;45340;-77
2022/03/25 07:31:57;;;;;;;;;59.25;47.00;;;;;13.88;49.80;102468.88;4993778;28;45376;-79
2022/03/25 07:34:23;;;;;;;;;55.50;41.50;;;;;13.75;49.64;102450.78;4994558;27;45411;-78
2022/03/25 07:36:48;;;;;;;;;63.00;47.00;;;;;13.81;49.14;102453.72;4993917;28;45327;-79
2022/03/25 07:39:16;;;;;;;;;57.75;46.00;;;;;13.95;48.82;102471.88;4995458;27;46019;-80
2022/03/25 07:41:41;;;;;;;;;59.25;46.00;;;;;13.91;48.57;102465.59;5007738;27;45945;-78
2022/03/25 07:44:07;;;;;;;;;58.50;47.00;;;;;14.08;48.70;102483.06;4996238;28;45343;-79
2022/03/25 07:46:33;;;;;;;;;50.00;40.25;;;;;14.07;47.74;102481.25;5013698;28;45292;-78
2022/03/25 07:48:58;;;;;;;;;54.25;42.25;;;;;14.11;47.32;102476.25;5013871;27;45219;-78
2022/03/25 07:51:24;;;;;;;;;57.75;44.00;;;;;14.22;46.51;102490.78;5014416;28;45985;-77
2022/03/25 07:53:50;;;;;;;;;58.00;45.00;;;;;14.25;46.14;102493.56;5017071;27;45270;-77
2022/03/25 07:56:15;;;;;;;;;57.75;45.50;;;;;14.28;46.05;102487.63;4997079;28;45331;-81
2022/03/25 07:58:41;;;;;;;;;60.25;46.00;;;;;14.22;46.43;102476.03;4996179;28;45264;-80
2022/03/25 08:01:07;;;;;;;;;62.50;48.00;;;;;14.33;45.50;102497.50;5013724;27;45446;-79
2022/03/25 08:03:32;;;;;;;;;59.00;45.75;;;;;14.18;45.62;102466.28;5013835;27;45335;-82
2022/03/25 08:05:58;;;;;;;;;57.50;46.00;;;;;14.39;45.77;102496.94;5013688;27;45345;-78
2022/03/25 08:08:23;;;;;;;;;60.00;45.75;;;;;14.44;46.26;102500.69;5017958;28;45232;-81
2022/03/25 08:10:55;;;;;;;;;59.25;46.25;;;;;14.45;45.55;102491.19;5017141;27;45408;-84
2022/03/25 08:13:22;;;;;;;;;62.00;46.25;;;;;14.48;45.62;102497.47;5018458;28;45950;-88
2022/03/25 08:15:48;;;;;;;;;53.50;41.00;;;;;14.33;45.65;102470.53;5017762;28;45245;-80
2022/03/25 08:18:13;;;;;;;;;67.25;52.25;;;;;14.48;45.67;102493.94;5013754;27;45271;-83
2022/03/25 08:20:44;;;;;;;;;59.50;48.00;;;;;14.54;45.33;102496.91;5016218;28;45465;-81
2022/03/25 08:23:13;;;;;;;;;57.00;45.25;;;;;14.50;45.81;102485.41;5018729;28;45209;-85
2022/03/25 08:28:26;;;;;;;;;64.50;49.25;;;;;14.62;45.66;102486.91;4997715;28;45293;-83
2022/03/25 08:30:52;;;;;;;;;62.00;48.00;;;;;14.60;45.45;102478.09;4997307;28;46132;-82
2022/03/25 08:33:18;;;;;;;;;59.50;45.50;;;;;14.78;45.54;102494.78;4993350;28;45725;-91
2022/03/25 08:35:45;;;;;;;;;52.75;44.00;;;;;14.82;44.86;102491.53;4993671;27;45312;-82
2022/03/25 08:38:12;;;;;;;;;61.00;46.00;;;;;14.86;44.62;102503.03;4975496;28;45526;-81
2022/03/25 08:40:40;;;;;;;;;64.50;46.25;;;;;14.92;44.72;102499.84;4984402;27;46221;-80
2022/03/25 08:43:09;;;;;;;;;61.25;46.00;;;;;14.88;44.49;102485.75;4992274;27;45522;-78
2022/03/25 08:45:35;;;;;;;;;65.25;49.00;;;;;14.94;44.79;102482.59;4989008;27;45375;-80
2022/03/25 08:48:00;;;;;;;;;61.00;47.75;;;;;14.97;44.70;102480.13;5047226;27;45552;-83
2022/03/25 08:50:26;;;;;;;;;60.25;46.25;;;;;15.11;44.81;102491.31;4990302;28;45799;-75
2022/03/25 08:52:53;;;;;;;;;63.50;47.50;;;;;15.16;44.38;102495.03;4988251;28;45575;-83
2022/03/25 08:55:20;;;;;;;;;63.25;47.75;;;;;15.22;43.86;102503.22;4978869;27;45319;-81
2022/03/25 08:57:47;;;;;;;;;62.25;47.75;;;;;15.25;43.73;102498.13;5004915;27;45398;-83
2022/03/25 09:00:16;;;;;;;;;59.75;46.00;;;;;15.19;44.17;102476.03;5087744;27;45338;-84
2022/03/25 09:02:43;;;;;;;;;59.25;45.00;;;;;15.03;43.91;102451.78;4984639;28;45915;-82
2022/03/25 09:05:13;;;;;;;;;60.25;45.00;;;;;15.38;43.94;102497.09;5007006;27;45440;-83
2022/03/25 09:07:39;;;;;;;;;61.25;44.50;;;;;15.42;43.65;102488.59;4989038;28;45430;-82
2022/03/25 09:10:05;;;;;;;;;60.75;48.00;;;;;15.27;43.14;102456.50;4995030;28;46750;-85
2022/03/25 09:12:34;;;;;;;;;65.75;47.75;;;;;15.46;42.55;102479.19;4997185;27;45861;-80
2022/03/25 09:15:00;;;;;;;;;60.00;44.75;;;;;15.60;42.69;102503.41;4997265;28;45428;-80
2022/03/25 09:17:26;;;;;;;;;63.75;49.00;;;;;15.60;42.15;102490.38;4994206;28;45757;-75
2022/03/25 09:19:52;;;;;;;;;58.00;45.50;;;;;15.68;42.04;102488.13;5003551;28;45430;-75
2022/03/25 09:22:18;;;;;;;;;62.25;48.25;;;;;15.58;41.94;102469.38;5025630;27;45732;-76
2022/03/25 09:24:44;;;;;;;;;57.50;44.25;;;;;15.78;41.65;102491.28;4992517;28;45231;-77
2022/03/25 09:27:09;;;;;;;;;62.50;48.00;;;;;15.72;41.70;102470.06;4996436;28;45293;-78
2022/03/25 09:29:35;;;;;;;;;61.50;48.50;;;;;15.88;41.51;102490.06;4999809;27;45998;-78
2022/03/25 09:32:01;;;;;;;;;66.50;49.75;;;;;15.83;41.66;102477.53;4996524;28;45526;-77
2022/03/25 09:37:13;;;;;;;;;65.25;50.25;;;;;16.04;41.38;102491.72;4995419;28;45422;-79
2022/03/25 09:39:38;;;;;;;;;62.25;47.75;;;;;16.04;41.62;102485.59;4977961;28;48196;-80
2022/03/25 09:42:06;;;;;;;;;61.25;48.00;;;;;16.12;41.60;102491.22;4992231;28;45432;-82
2022/03/25 09:44:33;;;;;;;;;67.25;51.75;;;;;16.18;41.43;102486.28;4999763;28;45255;-81
2022/03/25 09:47:00;;;;;;;;;59.50;47.50;;;;;16.22;41.60;102496.94;4991661;28;46334;-82
2022/03/25 09:49:26;;;;;;;;;70.50;51.75;;;;;16.17;41.72;102466.19;4992714;28;46350;-82
2022/03/25 09:51:55;;;;;;;;;63.50;49.75;;;;;16.14;41.13;102455.59;4975167;28;45470;-83
2022/03/25 09:54:21;;;;;;;;;64.25;50.75;;;;;16.15;41.74;102449.53;4986954;28;45506;-80
2022/03/25 09:56:48;;;;;;;;;63.75;50.00;;;;;16.32;40.89;102464.31;4982087;28;45608;-82
2022/03/25 09:59:17;;;;;;;;;61.50;49.00;;;;;16.48;41.10;102486.84;4987360;28;46920;-82
2022/03/25 10:01:43;;;;;;;;;65.00;49.00;;;;;16.19;41.32;102423.66;4965181;28;45784;-77
2022/03/25 10:04:23;;;;;;;;;65.75;49.25;;;;;16.39;40.61;102455.06;4982949;27;45629;-74
2022/03/25 10:06:49;;;;;;;;;65.50;50.25;;;;;16.42;40.31;102443.84;5010298;28;45405;-75
2022/03/25 10:09:23;;;;;;;;;66.50;51.50;;;;;16.55;40.30;102454.06;5015633;27;45658;-74
2022/03/25 10:11:49;;;;;;;;;66.75;50.75;;;;;16.74;40.73;102481.94;5000646;27;45602;-75
2022/03/25 10:14:22;;;;;;;;;65.00;50.25;;;;;16.80;40.29;102483.94;4998190;27;45228;-80
2022/03/25 10:16:53;;;;;;;;;67.00;49.50;;;;;16.84;39.68;102475.41;4993859;28;45371;-75
2022/03/25 10:19:24;;;;;;;;;69.00;51.25;;;;;16.83;39.99;102466.69;4993879;27;46105;-78
2022/03/25 10:21:49;;;;;;;;;65.75;52.25;;;;;16.93;39.26;102475.84;4999103;28;45691;-78
2022/03/25 10:24:18;;;;;;;;;69.25;52.75;;;;;16.95;39.14;102473.34;4999461;28;45375;-79
2022/03/25 10:26:45;;;;;;;;;68.50;51.00;;;;;16.92;38.72;102450.50;4996392;28;45447;-75
2022/03/25 10:29:22;;;;;;;;;63.25;49.00;;;;;17.09;38.99;102469.59;4982622;28;46366;-76
2022/03/25 10:32:15;;;;;;;;;66.25;49.75;;;;;17.12;39.22;102464.50;5009674;27;45487;-74
2022/03/25 10:34:42;;;;;;;;;66.50;49.25;;;;;17.12;38.99;102461.91;4999631;28;45876;-76
2022/03/25 10:37:11;;;;;;;;;65.75;50.50;;;;;17.15;39.19;102459.41;5014629;27;45436;-75
2022/03/25 10:39:52;;;;;;;;;69.25;52.75;;;;;17.24;38.79;102461.53;4994875;28;45455;-79
2022/03/25 10:42:18;;;;;;;;;63.00;47.50;;;;;17.37;38.61;102469.91;4994635;28;45312;-75
2022/03/25 10:44:44;;;;;;;;;65.25;52.00;;;;;17.27;38.22;102442.47;4977016;28;45391;-81
2022/03/25 10:47:15;;;;;;;;;68.50;52.75;;;;;17.46;38.02;102466.00;4995243;28;45277;-76
2022/03/25 10:49:46;;;;;;;;;66.25;51.25;;;;;17.23;37.93;102415.22;4995309;27;45816;-77
2022/03/25 10:52:30;;;;;;;;;65.00;48.75;;;;;17.50;37.46;102446.06;4984484;28;45495;-77
2022/03/25 10:55:14;;;;;;;;;71.00;52.50;;;;;17.61;37.27;102464.84;4998315;28;45358;-80
2022/03/25 10:57:48;;;;;;;;;67.50;51.50;;;;;17.53;37.48;102446.19;5005726;27;45606;-82
2022/03/25 11:00:14;;;;;;;;;66.50;52.00;;;;;17.56;36.99;102437.56;4994446;28;45474;-78
2022/03/25 11:02:40;;;;;;;;;67.25;52.00;;;;;17.67;37.26;102453.72;4994554;27;45256;-80
2022/03/25 11:05:09;;;;;;;;;69.00;51.00;;;;;17.73;37.60;102456.63;4993530;27;45485;-81
2022/03/25 11:07:37;;;;;;;;;65.50;50.00;;;;;17.82;37.41;102463.97;4997802;27;45339;-79
2022/03/25 11:10:02;;;;;;;;;67.25;51.75;;;;;17.66;37.17;102426.66;4994859;27;45911;-80
2022/03/25 11:12:30;;;;;;;;;65.75;51.50;;;;;17.41;35.76;102383.72;4976276;28;45430;-82
2022/03/25 11:14:58;;;;;;;;;63.50;48.25;;;;;17.70;35.38;102418.09;4986727;27;45380;-83